sensor_id;sensor_type;location;lat;lon;timestamp;P1;durP1;ratioP1;P2;durP2;ratioP2
13079;SDS011;6606;49.154;9.280;2022-08-02T00:00:48;1.65;;;1.25;;
13079;SDS011;6606;49.154;9.280;2022-08-02T00:03:15;1.52;;;1.33;;
13079;SDS011;6606;49.154;9.280;2022-08-02T00:05:42;1.60;;;1.20;;
13079;SDS011;6606;49.154;9.280;2022-08-02T00:08:08;2.72;;;1.40;;
13079;SDS011;6606;49.154;9.280;2022-08-02T00:10:35;2.58;;;1.30;;
13079;SDS011;6606;49.154;9.280;2022-08-02T00:13:03;1.52;;;1.23;;
13079;SDS011;6606;49.154;9.280;2022-08-02T00:15:30;1.77;;;1.30;;
13079;SDS011;6606;49.154;9.280;2022-08-02T00:17:56;2.55;;;1.40;;
13079;SDS011;6606;49.154;9.280;2022-08-02T00:20:23;1.83;;;1.20;;
13079;SDS011;6606;49.154;9.280;2022-08-02T00:22:50;1.67;;;1.23;;
13079;SDS011;6606;49.154;9.280;2022-08-02T00:25:16;5.22;;;1.60;;
13079;SDS011;6606;49.154;9.280;2022-08-02T00:27:43;2.33;;;1.50;;
13079;SDS011;6606;49.154;9.280;2022-08-02T00:30:11;2.88;;;1.38;;
13079;SDS011;6606;49.154;9.280;2022-08-02T00:32:38;2.08;;;1.40;;
13079;SDS011;6606;49.154;9.280;2022-08-02T00:35:05;2.03;;;1.30;;
13079;SDS011;6606;49.154;9.280;2022-08-02T00:37:36;2.38;;;1.67;;
13079;SDS011;6606;49.154;9.280;2022-08-02T00:40:04;1.88;;;1.40;;
13079;SDS011;6606;49.154;9.280;2022-08-02T00:42:31;1.70;;;1.45;;
13079;SDS011;6606;49.154;9.280;2022-08-02T00:44:58;2.55;;;1.50;;
13079;SDS011;6606;49.154;9.280;2022-08-02T00:47:26;2.67;;;1.48;;
13079;SDS011;6606;49.154;9.280;2022-08-02T00:49:53;2.60;;;1.42;;
13079;SDS011;6606;49.154;9.280;2022-08-02T00:52:20;1.30;;;1.17;;
13079;SDS011;6606;49.154;9.280;2022-08-02T00:54:48;2.83;;;1.60;;
13079;SDS011;6606;49.154;9.280;2022-08-02T00:57:15;3.00;;;1.58;;
13079;SDS011;6606;49.154;9.280;2022-08-02T00:59:41;2.97;;;1.35;;
13079;SDS011;6606;49.154;9.280;2022-08-02T01:02:08;1.83;;;1.30;;
13079;SDS011;6606;49.154;9.280;2022-08-02T01:04:36;2.13;;;1.30;;
13079;SDS011;6606;49.154;9.280;2022-08-02T01:07:03;2.75;;;1.60;;
13079;SDS011;6606;49.154;9.280;2022-08-02T01:09:30;1.95;;;1.50;;
13079;SDS011;6606;49.154;9.280;2022-08-02T01:11:57;1.85;;;1.50;;
13079;SDS011;6606;49.154;9.280;2022-08-02T01:14:23;1.63;;;1.50;;
13079;SDS011;6606;49.154;9.280;2022-08-02T01:16:51;1.88;;;1.48;;
13079;SDS011;6606;49.154;9.280;2022-08-02T01:19:29;1.75;;;1.58;;
13079;SDS011;6606;49.154;9.280;2022-08-02T01:22:07;3.53;;;1.50;;
13079;SDS011;6606;49.154;9.280;2022-08-02T01:24:54;3.97;;;1.67;;
13079;SDS011;6606;49.154;9.280;2022-08-02T01:27:35;3.15;;;1.50;;
13079;SDS011;6606;49.154;9.280;2022-08-02T01:30:17;1.50;;;1.35;;
13079;SDS011;6606;49.154;9.280;2022-08-02T01:32:48;1.60;;;1.30;;
13079;SDS011;6606;49.154;9.280;2022-08-02T01:35:20;2.38;;;1.60;;
13079;SDS011;6606;49.154;9.280;2022-08-02T01:37:50;1.88;;;1.42;;
13079;SDS011;6606;49.154;9.280;2022-08-02T01:40:22;1.75;;;1.40;;
13079;SDS011;6606;49.154;9.280;2022-08-02T01:42:54;2.40;;;1.42;;
13079;SDS011;6606;49.154;9.280;2022-08-02T01:45:24;2.22;;;1.55;;
13079;SDS011;6606;49.154;9.280;2022-08-02T01:47:52;1.52;;;1.30;;
13079;SDS011;6606;49.154;9.280;2022-08-02T01:50:20;4.20;;;1.80;;
13079;SDS011;6606;49.154;9.280;2022-08-02T01:52:51;3.35;;;1.65;;
13079;SDS011;6606;49.154;9.280;2022-08-02T01:55:23;2.05;;;1.40;;
13079;SDS011;6606;49.154;9.280;2022-08-02T01:57:54;1.77;;;1.52;;
13079;SDS011;6606;49.154;9.280;2022-08-02T02:00:24;2.08;;;1.58;;
13079;SDS011;6606;49.154;9.280;2022-08-02T02:02:54;3.13;;;1.50;;
13079;SDS011;6606;49.154;9.280;2022-08-02T02:05:23;2.03;;;1.70;;
13079;SDS011;6606;49.154;9.280;2022-08-02T02:07:54;3.15;;;1.70;;
13079;SDS011;6606;49.154;9.280;2022-08-02T02:10:23;2.08;;;1.55;;
13079;SDS011;6606;49.154;9.280;2022-08-02T02:12:54;2.05;;;1.55;;
13079;SDS011;6606;49.154;9.280;2022-08-02T02:15:25;1.85;;;1.50;;
13079;SDS011;6606;49.154;9.280;2022-08-02T02:17:52;2.08;;;1.70;;
13079;SDS011;6606;49.154;9.280;2022-08-02T02:20:22;2.42;;;1.67;;
13079;SDS011;6606;49.154;9.280;2022-08-02T02:22:49;2.65;;;1.77;;
13079;SDS011;6606;49.154;9.280;2022-08-02T02:25:17;1.98;;;1.80;;
13079;SDS011;6606;49.154;9.280;2022-08-02T02:27:47;1.98;;;1.52;;
13079;SDS011;6606;49.154;9.280;2022-08-02T02:30:19;2.80;;;1.80;;
13079;SDS011;6606;49.154;9.280;2022-08-02T02:32:50;3.65;;;1.48;;
13079;SDS011;6606;49.154;9.280;2022-08-02T02:35:21;4.32;;;1.77;;
13079;SDS011;6606;49.154;9.280;2022-08-02T02:37:49;3.10;;;1.70;;
13079;SDS011;6606;49.154;9.280;2022-08-02T02:40:17;2.25;;;1.55;;
13079;SDS011;6606;49.154;9.280;2022-08-02T02:42:45;2.13;;;1.70;;
13079;SDS011;6606;49.154;9.280;2022-08-02T02:45:15;3.65;;;1.80;;
13079;SDS011;6606;49.154;9.280;2022-08-02T02:47:43;2.47;;;1.60;;
13079;SDS011;6606;49.154;9.280;2022-08-02T02:50:15;2.17;;;1.67;;
13079;SDS011;6606;49.154;9.280;2022-08-02T02:52:42;2.50;;;1.65;;
13079;SDS011;6606;49.154;9.280;2022-08-02T02:55:11;2.13;;;1.60;;
13079;SDS011;6606;49.154;9.280;2022-08-02T02:57:38;2.50;;;1.73;;
13079;SDS011;6606;49.154;9.280;2022-08-02T03:00:08;2.25;;;1.75;;
13079;SDS011;6606;49.154;9.280;2022-08-02T03:02:36;2.65;;;1.63;;
13079;SDS011;6606;49.154;9.280;2022-08-02T03:05:05;3.88;;;1.80;;
13079;SDS011;6606;49.154;9.280;2022-08-02T03:07:34;2.92;;;1.65;;
13079;SDS011;6606;49.154;9.280;2022-08-02T03:10:02;1.95;;;1.67;;
13079;SDS011;6606;49.154;9.280;2022-08-02T03:12:30;3.15;;;1.90;;
13079;SDS011;6606;49.154;9.280;2022-08-02T03:14:59;2.65;;;2.05;;
13079;SDS011;6606;49.154;9.280;2022-08-02T03:17:38;2.05;;;1.80;;
13079;SDS011;6606;49.154;9.280;2022-08-02T03:20:09;2.58;;;1.70;;
13079;SDS011;6606;49.154;9.280;2022-08-02T03:22:39;2.65;;;1.65;;
13079;SDS011;6606;49.154;9.280;2022-08-02T03:25:07;2.72;;;1.90;;
13079;SDS011;6606;49.154;9.280;2022-08-02T03:27:35;2.50;;;1.92;;
13079;SDS011;6606;49.154;9.280;2022-08-02T03:30:02;2.63;;;1.63;;
13079;SDS011;6606;49.154;9.280;2022-08-02T03:32:31;2.88;;;1.73;;
13079;SDS011;6606;49.154;9.280;2022-08-02T03:34:59;3.13;;;1.85;;
13079;SDS011;6606;49.154;9.280;2022-08-02T03:37:26;4.00;;;1.70;;
13079;SDS011;6606;49.154;9.280;2022-08-02T03:39:56;1.85;;;1.60;;
13079;SDS011;6606;49.154;9.280;2022-08-02T03:42:24;4.32;;;2.03;;
13079;SDS011;6606;49.154;9.280;2022-08-02T03:44:53;3.72;;;2.10;;
13079;SDS011;6606;49.154;9.280;2022-08-02T03:47:21;3.50;;;1.73;;
13079;SDS011;6606;49.154;9.280;2022-08-02T03:49:49;2.83;;;1.88;;
13079;SDS011;6606;49.154;9.280;2022-08-02T03:52:16;3.92;;;2.00;;
13079;SDS011;6606;49.154;9.280;2022-08-02T03:54:43;2.80;;;2.20;;
13079;SDS011;6606;49.154;9.280;2022-08-02T03:57:11;2.08;;;1.77;;
13079;SDS011;6606;49.154;9.280;2022-08-02T03:59:39;3.17;;;1.90;;
13079;SDS011;6606;49.154;9.280;2022-08-02T04:02:07;3.95;;;2.30;;
13079;SDS011;6606;49.154;9.280;2022-08-02T04:04:34;5.15;;;2.28;;
13079;SDS011;6606;49.154;9.280;2022-08-02T04:07:01;3.38;;;2.13;;
13079;SDS011;6606;49.154;9.280;2022-08-02T04:09:28;2.33;;;1.90;;
13079;SDS011;6606;49.154;9.280;2022-08-02T04:11:54;2.30;;;2.10;;
13079;SDS011;6606;49.154;9.280;2022-08-02T04:14:22;3.55;;;2.00;;
13079;SDS011;6606;49.154;9.280;2022-08-02T04:16:51;2.55;;;1.92;;
13079;SDS011;6606;49.154;9.280;2022-08-02T04:19:20;2.00;;;1.80;;
13079;SDS011;6606;49.154;9.280;2022-08-02T04:21:51;2.65;;;1.95;;
13079;SDS011;6606;49.154;9.280;2022-08-02T04:24:21;5.00;;;2.10;;
13079;SDS011;6606;49.154;9.280;2022-08-02T04:26:52;4.05;;;2.05;;
13079;SDS011;6606;49.154;9.280;2022-08-02T04:29:20;2.70;;;2.20;;
13079;SDS011;6606;49.154;9.280;2022-08-02T04:31:49;3.95;;;2.13;;
13079;SDS011;6606;49.154;9.280;2022-08-02T04:34:16;3.85;;;2.38;;
13079;SDS011;6606;49.154;9.280;2022-08-02T04:36:43;2.15;;;1.95;;
13079;SDS011;6606;49.154;9.280;2022-08-02T04:39:10;4.65;;;2.13;;
13079;SDS011;6606;49.154;9.280;2022-08-02T04:41:37;3.85;;;1.95;;
13079;SDS011;6606;49.154;9.280;2022-08-02T04:44:05;4.35;;;2.00;;
13079;SDS011;6606;49.154;9.280;2022-08-02T04:46:33;4.57;;;2.17;;
13079;SDS011;6606;49.154;9.280;2022-08-02T04:49:01;4.10;;;2.10;;
13079;SDS011;6606;49.154;9.280;2022-08-02T04:51:27;2.63;;;2.15;;
13079;SDS011;6606;49.154;9.280;2022-08-02T04:53:54;3.10;;;2.22;;
13079;SDS011;6606;49.154;9.280;2022-08-02T04:56:21;3.13;;;2.10;;
13079;SDS011;6606;49.154;9.280;2022-08-02T04:58:47;2.25;;;1.90;;
13079;SDS011;6606;49.154;9.280;2022-08-02T05:01:14;3.80;;;2.10;;
13079;SDS011;6606;49.154;9.280;2022-08-02T05:03:42;3.97;;;1.88;;
13079;SDS011;6606;49.154;9.280;2022-08-02T05:06:09;7.43;;;2.30;;
13079;SDS011;6606;49.154;9.280;2022-08-02T05:08:35;3.75;;;2.15;;
13079;SDS011;6606;49.154;9.280;2022-08-02T05:11:02;6.10;;;2.40;;
13079;SDS011;6606;49.154;9.280;2022-08-02T05:13:29;2.85;;;2.28;;
13079;SDS011;6606;49.154;9.280;2022-08-02T05:15:55;5.13;;;2.97;;
13079;SDS011;6606;49.154;9.280;2022-08-02T05:18:25;9.73;;;7.70;;
13079;SDS011;6606;49.154;9.280;2022-08-02T05:20:53;10.90;;;7.88;;
13079;SDS011;6606;49.154;9.280;2022-08-02T05:23:20;10.68;;;7.88;;
13079;SDS011;6606;49.154;9.280;2022-08-02T05:25:47;11.68;;;7.50;;
13079;SDS011;6606;49.154;9.280;2022-08-02T05:28:13;10.13;;;6.70;;
13079;SDS011;6606;49.154;9.280;2022-08-02T05:30:40;8.20;;;6.30;;
13079;SDS011;6606;49.154;9.280;2022-08-02T05:33:07;8.57;;;5.63;;
13079;SDS011;6606;49.154;9.280;2022-08-02T05:35:33;6.05;;;4.82;;
13079;SDS011;6606;49.154;9.280;2022-08-02T05:38:01;7.22;;;4.88;;
13079;SDS011;6606;49.154;9.280;2022-08-02T05:40:29;7.00;;;4.70;;
13079;SDS011;6606;49.154;9.280;2022-08-02T05:42:55;5.18;;;4.13;;
13079;SDS011;6606;49.154;9.280;2022-08-02T05:45:22;4.60;;;3.67;;
13079;SDS011;6606;49.154;9.280;2022-08-02T05:47:49;4.82;;;3.90;;
13079;SDS011;6606;49.154;9.280;2022-08-02T05:50:16;3.78;;;3.38;;
13079;SDS011;6606;49.154;9.280;2022-08-02T05:52:44;6.25;;;3.60;;
13079;SDS011;6606;49.154;9.280;2022-08-02T05:55:17;4.28;;;3.42;;
13079;SDS011;6606;49.154;9.280;2022-08-02T05:57:51;5.40;;;3.53;;
13079;SDS011;6606;49.154;9.280;2022-08-02T06:00:22;3.40;;;3.00;;
13079;SDS011;6606;49.154;9.280;2022-08-02T06:05:45;4.78;;;3.13;;
13079;SDS011;6606;49.154;9.280;2022-08-02T06:08:16;5.35;;;2.60;;
13079;SDS011;6606;49.154;9.280;2022-08-02T06:10:47;3.70;;;2.80;;
13079;SDS011;6606;49.154;9.280;2022-08-02T06:13:16;3.25;;;2.50;;
13079;SDS011;6606;49.154;9.280;2022-08-02T06:15:45;4.13;;;2.80;;
13079;SDS011;6606;49.154;9.280;2022-08-02T06:18:17;4.93;;;2.45;;
13079;SDS011;6606;49.154;9.280;2022-08-02T06:20:45;7.82;;;2.88;;
13079;SDS011;6606;49.154;9.280;2022-08-02T06:23:14;5.70;;;2.88;;
13079;SDS011;6606;49.154;9.280;2022-08-02T06:25:42;6.82;;;2.95;;
13079;SDS011;6606;49.154;9.280;2022-08-02T06:28:15;6.47;;;2.42;;
13079;SDS011;6606;49.154;9.280;2022-08-02T06:30:44;3.42;;;3.03;;
13079;SDS011;6606;49.154;9.280;2022-08-02T06:33:11;3.83;;;2.60;;
13079;SDS011;6606;49.154;9.280;2022-08-02T06:35:40;4.00;;;3.00;;
13079;SDS011;6606;49.154;9.280;2022-08-02T06:38:11;5.55;;;3.05;;
13079;SDS011;6606;49.154;9.280;2022-08-02T06:40:52;3.70;;;2.88;;
13079;SDS011;6606;49.154;9.280;2022-08-02T06:43:25;3.25;;;2.80;;
13079;SDS011;6606;49.154;9.280;2022-08-02T06:46:00;2.95;;;2.63;;
13079;SDS011;6606;49.154;9.280;2022-08-02T06:48:28;2.40;;;2.20;;
13079;SDS011;6606;49.154;9.280;2022-08-02T06:50:55;3.70;;;2.80;;
13079;SDS011;6606;49.154;9.280;2022-08-02T06:53:22;5.45;;;2.60;;
13079;SDS011;6606;49.154;9.280;2022-08-02T06:55:50;2.78;;;2.45;;
13079;SDS011;6606;49.154;9.280;2022-08-02T06:58:16;5.07;;;2.50;;
13079;SDS011;6606;49.154;9.280;2022-08-02T07:00:43;3.95;;;2.42;;
13079;SDS011;6606;49.154;9.280;2022-08-02T07:03:10;3.03;;;2.60;;
13079;SDS011;6606;49.154;9.280;2022-08-02T07:05:37;2.72;;;1.92;;
13079;SDS011;6606;49.154;9.280;2022-08-02T07:08:03;2.65;;;2.10;;
13079;SDS011;6606;49.154;9.280;2022-08-02T07:10:30;3.67;;;2.38;;
13079;SDS011;6606;49.154;9.280;2022-08-02T07:12:58;2.42;;;2.22;;
13079;SDS011;6606;49.154;9.280;2022-08-02T07:15:25;2.55;;;2.30;;
13079;SDS011;6606;49.154;9.280;2022-08-02T07:17:52;3.60;;;2.55;;
13079;SDS011;6606;49.154;9.280;2022-08-02T07:20:18;3.28;;;2.17;;
13079;SDS011;6606;49.154;9.280;2022-08-02T07:22:45;2.50;;;2.30;;
13079;SDS011;6606;49.154;9.280;2022-08-02T07:25:11;2.70;;;1.80;;
13079;SDS011;6606;49.154;9.280;2022-08-02T07:27:38;2.30;;;2.10;;
13079;SDS011;6606;49.154;9.280;2022-08-02T07:30:07;2.70;;;1.77;;
13079;SDS011;6606;49.154;9.280;2022-08-02T07:32:35;2.28;;;1.80;;
13079;SDS011;6606;49.154;9.280;2022-08-02T07:35:02;2.00;;;1.70;;
13079;SDS011;6606;49.154;9.280;2022-08-02T07:37:29;2.10;;;1.75;;
13079;SDS011;6606;49.154;9.280;2022-08-02T07:39:57;2.53;;;1.83;;
13079;SDS011;6606;49.154;9.280;2022-08-02T07:42:26;1.92;;;1.60;;
13079;SDS011;6606;49.154;9.280;2022-08-02T07:44:53;2.60;;;1.95;;
13079;SDS011;6606;49.154;9.280;2022-08-02T07:47:21;2.60;;;1.67;;
13079;SDS011;6606;49.154;9.280;2022-08-02T07:49:48;3.45;;;1.70;;
13079;SDS011;6606;49.154;9.280;2022-08-02T07:52:15;1.90;;;1.60;;
13079;SDS011;6606;49.154;9.280;2022-08-02T07:54:42;2.95;;;1.42;;
13079;SDS011;6606;49.154;9.280;2022-08-02T07:57:08;2.45;;;1.60;;
13079;SDS011;6606;49.154;9.280;2022-08-02T07:59:35;1.98;;;1.60;;
13079;SDS011;6606;49.154;9.280;2022-08-02T08:02:02;1.77;;;1.42;;
13079;SDS011;6606;49.154;9.280;2022-08-02T08:04:30;1.83;;;1.50;;
13079;SDS011;6606;49.154;9.280;2022-08-02T08:06:56;2.13;;;1.40;;
13079;SDS011;6606;49.154;9.280;2022-08-02T08:09:23;1.70;;;1.55;;
13079;SDS011;6606;49.154;9.280;2022-08-02T08:11:50;1.95;;;1.52;;
13079;SDS011;6606;49.154;9.280;2022-08-02T08:14:16;1.90;;;1.70;;
13079;SDS011;6606;49.154;9.280;2022-08-02T08:16:43;2.45;;;1.55;;
13079;SDS011;6606;49.154;9.280;2022-08-02T08:19:10;2.75;;;1.80;;
13079;SDS011;6606;49.154;9.280;2022-08-02T08:21:38;2.15;;;1.50;;
13079;SDS011;6606;49.154;9.280;2022-08-02T08:24:04;2.47;;;1.52;;
13079;SDS011;6606;49.154;9.280;2022-08-02T08:26:31;1.40;;;1.30;;
13079;SDS011;6606;49.154;9.280;2022-08-02T08:28:58;2.63;;;1.50;;
13079;SDS011;6606;49.154;9.280;2022-08-02T08:31:26;5.38;;;1.45;;
13079;SDS011;6606;49.154;9.280;2022-08-02T08:33:52;3.72;;;1.55;;
13079;SDS011;6606;49.154;9.280;2022-08-02T08:36:19;1.83;;;1.63;;
13079;SDS011;6606;49.154;9.280;2022-08-02T08:38:47;1.92;;;1.65;;
13079;SDS011;6606;49.154;9.280;2022-08-02T08:41:14;3.05;;;1.60;;
13079;SDS011;6606;49.154;9.280;2022-08-02T08:43:41;3.03;;;1.70;;
13079;SDS011;6606;49.154;9.280;2022-08-02T08:46:08;3.17;;;1.50;;
13079;SDS011;6606;49.154;9.280;2022-08-02T08:48:37;3.38;;;1.70;;
13079;SDS011;6606;49.154;9.280;2022-08-02T08:51:09;2.92;;;1.70;;
13079;SDS011;6606;49.154;9.280;2022-08-02T08:53:41;1.70;;;1.60;;
13079;SDS011;6606;49.154;9.280;2022-08-02T08:56:11;2.17;;;1.60;;
13079;SDS011;6606;49.154;9.280;2022-08-02T08:58:39;2.65;;;1.60;;
13079;SDS011;6606;49.154;9.280;2022-08-02T09:01:06;4.07;;;1.92;;
13079;SDS011;6606;49.154;9.280;2022-08-02T09:03:33;2.28;;;1.73;;
13079;SDS011;6606;49.154;9.280;2022-08-02T09:05:59;4.95;;;1.70;;
13079;SDS011;6606;49.154;9.280;2022-08-02T09:08:26;4.95;;;1.70;;
13079;SDS011;6606;49.154;9.280;2022-08-02T09:10:53;4.13;;;1.95;;
13079;SDS011;6606;49.154;9.280;2022-08-02T09:13:22;1.80;;;1.70;;
13079;SDS011;6606;49.154;9.280;2022-08-02T09:15:55;3.65;;;1.70;;
13079;SDS011;6606;49.154;9.280;2022-08-02T09:18:29;3.20;;;1.80;;
13079;SDS011;6606;49.154;9.280;2022-08-02T09:20:57;5.15;;;2.13;;
13079;SDS011;6606;49.154;9.280;2022-08-02T09:23:25;3.20;;;1.90;;
13079;SDS011;6606;49.154;9.280;2022-08-02T09:25:59;5.10;;;1.85;;
13079;SDS011;6606;49.154;9.280;2022-08-02T09:28:29;3.65;;;1.90;;
13079;SDS011;6606;49.154;9.280;2022-08-02T09:31:01;2.60;;;1.75;;
13079;SDS011;6606;49.154;9.280;2022-08-02T09:33:30;2.67;;;2.10;;
13079;SDS011;6606;49.154;9.280;2022-08-02T09:35:58;2.38;;;2.05;;
13079;SDS011;6606;49.154;9.280;2022-08-02T09:38:26;2.63;;;2.00;;
13079;SDS011;6606;49.154;9.280;2022-08-02T09:40:53;3.58;;;2.10;;
13079;SDS011;6606;49.154;9.280;2022-08-02T09:43:22;2.92;;;1.90;;
13079;SDS011;6606;49.154;9.280;2022-08-02T09:46:11;2.75;;;2.40;;
13079;SDS011;6606;49.154;9.280;2022-08-02T09:48:49;4.32;;;2.20;;
13079;SDS011;6606;49.154;9.280;2022-08-02T09:51:18;2.72;;;2.03;;
13079;SDS011;6606;49.154;9.280;2022-08-02T09:53:46;2.33;;;2.10;;
13079;SDS011;6606;49.154;9.280;2022-08-02T09:56:17;2.42;;;2.05;;
13079;SDS011;6606;49.154;9.280;2022-08-02T09:58:46;2.78;;;2.08;;
13079;SDS011;6606;49.154;9.280;2022-08-02T10:01:13;2.90;;;1.90;;
13079;SDS011;6606;49.154;9.280;2022-08-02T10:03:52;2.60;;;2.17;;
13079;SDS011;6606;49.154;9.280;2022-08-02T10:06:20;2.17;;;1.95;;
13079;SDS011;6606;49.154;9.280;2022-08-02T10:08:47;5.93;;;2.13;;
13079;SDS011;6606;49.154;9.280;2022-08-02T10:11:13;2.92;;;2.22;;
13079;SDS011;6606;49.154;9.280;2022-08-02T10:13:41;4.57;;;2.20;;
13079;SDS011;6606;49.154;9.280;2022-08-02T10:16:09;3.85;;;1.90;;
13079;SDS011;6606;49.154;9.280;2022-08-02T10:18:36;3.22;;;2.20;;
13079;SDS011;6606;49.154;9.280;2022-08-02T10:21:05;2.78;;;2.00;;
13079;SDS011;6606;49.154;9.280;2022-08-02T10:23:35;3.83;;;2.20;;
13079;SDS011;6606;49.154;9.280;2022-08-02T10:26:05;3.88;;;2.13;;
13079;SDS011;6606;49.154;9.280;2022-08-02T10:28:33;3.15;;;2.30;;
13079;SDS011;6606;49.154;9.280;2022-08-02T10:31:01;7.10;;;2.20;;
13079;SDS011;6606;49.154;9.280;2022-08-02T10:33:31;3.20;;;1.98;;
13079;SDS011;6606;49.154;9.280;2022-08-02T10:36:00;4.22;;;2.55;;
13079;SDS011;6606;49.154;9.280;2022-08-02T10:38:29;4.25;;;2.20;;
13079;SDS011;6606;49.154;9.280;2022-08-02T10:40:56;4.00;;;2.20;;
13079;SDS011;6606;49.154;9.280;2022-08-02T10:43:39;3.42;;;2.00;;
13079;SDS011;6606;49.154;9.280;2022-08-02T10:49:10;4.40;;;1.92;;
13079;SDS011;6606;49.154;9.280;2022-08-02T10:54:24;3.83;;;2.17;;
13079;SDS011;6606;49.154;9.280;2022-08-02T10:56:52;2.88;;;1.95;;
13079;SDS011;6606;49.154;9.280;2022-08-02T10:59:24;4.80;;;2.30;;
13079;SDS011;6606;49.154;9.280;2022-08-02T11:01:52;2.67;;;1.80;;
13079;SDS011;6606;49.154;9.280;2022-08-02T11:04:27;2.83;;;1.70;;
13079;SDS011;6606;49.154;9.280;2022-08-02T11:07:11;4.53;;;2.03;;
13079;SDS011;6606;49.154;9.280;2022-08-02T11:09:41;2.25;;;2.00;;
13079;SDS011;6606;49.154;9.280;2022-08-02T11:12:09;4.93;;;2.00;;
13079;SDS011;6606;49.154;9.280;2022-08-02T11:14:37;2.15;;;1.83;;
13079;SDS011;6606;49.154;9.280;2022-08-02T11:17:10;2.80;;;1.80;;
13079;SDS011;6606;49.154;9.280;2022-08-02T11:22:44;2.63;;;1.98;;
13079;SDS011;6606;49.154;9.280;2022-08-02T11:28:06;1.83;;;1.70;;
13079;SDS011;6606;49.154;9.280;2022-08-02T11:30:38;3.35;;;2.00;;
13079;SDS011;6606;49.154;9.280;2022-08-02T11:33:04;2.17;;;1.85;;
13079;SDS011;6606;49.154;9.280;2022-08-02T11:35:37;1.90;;;1.67;;
13079;SDS011;6606;49.154;9.280;2022-08-02T11:38:15;4.10;;;1.70;;
13079;SDS011;6606;49.154;9.280;2022-08-02T11:40:43;2.10;;;1.90;;
13079;SDS011;6606;49.154;9.280;2022-08-02T11:43:15;4.07;;;1.90;;
13079;SDS011;6606;49.154;9.280;2022-08-02T11:45:42;2.17;;;1.77;;
13079;SDS011;6606;49.154;9.280;2022-08-02T11:48:09;1.70;;;1.60;;
13079;SDS011;6606;49.154;9.280;2022-08-02T11:50:37;2.13;;;1.80;;
13079;SDS011;6606;49.154;9.280;2022-08-02T11:53:11;3.88;;;3.47;;
13079;SDS011;6606;49.154;9.280;2022-08-02T11:55:38;2.75;;;2.30;;
13079;SDS011;6606;49.154;9.280;2022-08-02T11:58:05;2.13;;;1.90;;
13079;SDS011;6606;49.154;9.280;2022-08-02T12:00:32;4.25;;;1.80;;
13079;SDS011;6606;49.154;9.280;2022-08-02T12:02:59;2.10;;;1.90;;
13079;SDS011;6606;49.154;9.280;2022-08-02T12:05:26;3.28;;;1.90;;
13079;SDS011;6606;49.154;9.280;2022-08-02T12:07:54;3.28;;;1.77;;
13079;SDS011;6606;49.154;9.280;2022-08-02T12:10:21;2.88;;;1.80;;
13079;SDS011;6606;49.154;9.280;2022-08-02T12:12:49;3.22;;;1.60;;
13079;SDS011;6606;49.154;9.280;2022-08-02T12:15:27;2.38;;;1.50;;
13079;SDS011;6606;49.154;9.280;2022-08-02T12:17:55;1.58;;;1.48;;
13079;SDS011;6606;49.154;9.280;2022-08-02T12:20:39;2.70;;;1.60;;
13079;SDS011;6606;49.154;9.280;2022-08-02T12:23:08;2.30;;;1.60;;
13079;SDS011;6606;49.154;9.280;2022-08-02T12:25:34;1.67;;;1.58;;
13079;SDS011;6606;49.154;9.280;2022-08-02T12:28:14;2.63;;;1.80;;
13079;SDS011;6606;49.154;9.280;2022-08-02T12:30:52;2.38;;;1.73;;
13079;SDS011;6606;49.154;9.280;2022-08-02T12:33:20;3.33;;;1.70;;
13079;SDS011;6606;49.154;9.280;2022-08-02T12:35:48;2.03;;;1.83;;
13079;SDS011;6606;49.154;9.280;2022-08-02T12:38:16;3.85;;;1.90;;
13079;SDS011;6606;49.154;9.280;2022-08-02T12:40:44;2.92;;;1.80;;
13079;SDS011;6606;49.154;9.280;2022-08-02T12:43:18;3.53;;;1.60;;
13079;SDS011;6606;49.154;9.280;2022-08-02T12:45:48;2.60;;;1.75;;
13079;SDS011;6606;49.154;9.280;2022-08-02T12:48:28;3.22;;;1.70;;
13079;SDS011;6606;49.154;9.280;2022-08-02T12:50:56;2.30;;;1.60;;
13079;SDS011;6606;49.154;9.280;2022-08-02T12:53:29;2.03;;;1.60;;
13079;SDS011;6606;49.154;9.280;2022-08-02T12:55:57;2.08;;;1.52;;
13079;SDS011;6606;49.154;9.280;2022-08-02T12:58:25;1.73;;;1.63;;
13079;SDS011;6606;49.154;9.280;2022-08-02T13:00:52;6.38;;;1.70;;
13079;SDS011;6606;49.154;9.280;2022-08-02T13:03:20;3.47;;;1.50;;
13079;SDS011;6606;49.154;9.280;2022-08-02T13:05:48;1.65;;;1.45;;
13079;SDS011;6606;49.154;9.280;2022-08-02T13:08:15;2.00;;;1.58;;
13079;SDS011;6606;49.154;9.280;2022-08-02T13:10:43;3.28;;;1.58;;
13079;SDS011;6606;49.154;9.280;2022-08-02T13:13:10;3.08;;;1.70;;
13079;SDS011;6606;49.154;9.280;2022-08-02T13:15:37;2.22;;;1.50;;
13079;SDS011;6606;49.154;9.280;2022-08-02T13:18:04;2.10;;;1.60;;
13079;SDS011;6606;49.154;9.280;2022-08-02T13:20:30;6.68;;;1.70;;
13079;SDS011;6606;49.154;9.280;2022-08-02T13:22:57;2.20;;;1.38;;
13079;SDS011;6606;49.154;9.280;2022-08-02T13:25:24;2.42;;;1.50;;
13079;SDS011;6606;49.154;9.280;2022-08-02T13:27:52;1.90;;;1.40;;
13079;SDS011;6606;49.154;9.280;2022-08-02T13:30:18;2.25;;;1.40;;
13079;SDS011;6606;49.154;9.280;2022-08-02T13:32:45;3.05;;;1.45;;
13079;SDS011;6606;49.154;9.280;2022-08-02T13:35:12;3.67;;;1.60;;
13079;SDS011;6606;49.154;9.280;2022-08-02T13:37:39;2.92;;;1.40;;
13079;SDS011;6606;49.154;9.280;2022-08-02T13:40:07;1.85;;;1.40;;
13079;SDS011;6606;49.154;9.280;2022-08-02T13:42:34;2.85;;;1.67;;
13079;SDS011;6606;49.154;9.280;2022-08-02T13:45:02;6.10;;;1.80;;
13079;SDS011;6606;49.154;9.280;2022-08-02T13:47:29;2.28;;;1.50;;
13079;SDS011;6606;49.154;9.280;2022-08-02T13:49:56;1.60;;;1.48;;
13079;SDS011;6606;49.154;9.280;2022-08-02T13:52:22;2.63;;;1.30;;
13079;SDS011;6606;49.154;9.280;2022-08-02T13:54:49;3.22;;;1.50;;
13079;SDS011;6606;49.154;9.280;2022-08-02T13:57:16;2.05;;;1.55;;
13079;SDS011;6606;49.154;9.280;2022-08-02T13:59:42;1.85;;;1.40;;
13079;SDS011;6606;49.154;9.280;2022-08-02T14:02:10;2.72;;;1.50;;
13079;SDS011;6606;49.154;9.280;2022-08-02T14:04:37;2.10;;;1.55;;
13079;SDS011;6606;49.154;9.280;2022-08-02T14:07:04;2.08;;;1.50;;
13079;SDS011;6606;49.154;9.280;2022-08-02T14:09:30;2.45;;;1.25;;
13079;SDS011;6606;49.154;9.280;2022-08-02T14:11:57;3.17;;;1.60;;
13079;SDS011;6606;49.154;9.280;2022-08-02T14:14:24;2.85;;;1.38;;
13079;SDS011;6606;49.154;9.280;2022-08-02T14:16:51;1.60;;;1.48;;
13079;SDS011;6606;49.154;9.280;2022-08-02T14:19:19;3.60;;;1.40;;
13079;SDS011;6606;49.154;9.280;2022-08-02T14:21:46;3.28;;;1.60;;
13079;SDS011;6606;49.154;9.280;2022-08-02T14:24:12;1.65;;;1.40;;
13079;SDS011;6606;49.154;9.280;2022-08-02T14:26:39;1.60;;;1.40;;
13079;SDS011;6606;49.154;9.280;2022-08-02T14:29:06;2.22;;;1.48;;
13079;SDS011;6606;49.154;9.280;2022-08-02T14:31:33;6.65;;;1.40;;
13079;SDS011;6606;49.154;9.280;2022-08-02T14:33:59;3.83;;;1.50;;
13079;SDS011;6606;49.154;9.280;2022-08-02T14:36:27;3.22;;;1.77;;
13079;SDS011;6606;49.154;9.280;2022-08-02T14:38:54;4.10;;;1.48;;
13079;SDS011;6606;49.154;9.280;2022-08-02T14:41:21;1.45;;;1.35;;
13079;SDS011;6606;49.154;9.280;2022-08-02T14:43:48;1.45;;;1.35;;
13079;SDS011;6606;49.154;9.280;2022-08-02T14:46:31;1.75;;;1.40;;
13079;SDS011;6606;49.154;9.280;2022-08-02T14:48:59;3.38;;;1.50;;
13079;SDS011;6606;49.154;9.280;2022-08-02T14:51:29;1.60;;;1.50;;
13079;SDS011;6606;49.154;9.280;2022-08-02T14:53:56;1.40;;;1.30;;
13079;SDS011;6606;49.154;9.280;2022-08-02T14:56:24;1.58;;;1.30;;
13079;SDS011;6606;49.154;9.280;2022-08-02T14:58:51;1.80;;;1.35;;
13079;SDS011;6606;49.154;9.280;2022-08-02T15:01:18;1.55;;;1.40;;
13079;SDS011;6606;49.154;9.280;2022-08-02T15:03:45;2.35;;;1.30;;
13079;SDS011;6606;49.154;9.280;2022-08-02T15:06:12;4.43;;;1.50;;
13079;SDS011;6606;49.154;9.280;2022-08-02T15:08:40;5.18;;;1.45;;
13079;SDS011;6606;49.154;9.280;2022-08-02T15:11:06;2.30;;;1.48;;
13079;SDS011;6606;49.154;9.280;2022-08-02T15:13:33;2.08;;;1.38;;
13079;SDS011;6606;49.154;9.280;2022-08-02T15:16:00;3.33;;;1.40;;
13079;SDS011;6606;49.154;9.280;2022-08-02T15:18:27;1.40;;;1.20;;
13079;SDS011;6606;49.154;9.280;2022-08-02T15:20:53;1.90;;;1.50;;
13079;SDS011;6606;49.154;9.280;2022-08-02T15:23:20;1.88;;;1.38;;